Airfield :







YOU CAN JOIN US ON...

 
LOGIN :

Register | Disclaimer

   EN    FR    IT 

 









Legend :    VFR   Marginal VFR   IFR   Intensive IFR   Very Intensive IFR
Visi :
Ceiling :
>= 8 km
>= 3000ft
5 to 8 km
1000 to 3000 ft
1500m to 5 km
500 to 1000 ft
800 to 1500m
200 to 500 ft
< 800m
< 200 ft
Symbols :   Thunderstorms  Fog  Heavy snow  Heavy precipitations  Wind > 20 kt







- Airport Elevation : 732 ft


KMVL - Morrisville Stowe State

CURRENT METAR :
  • 230554Z AUTO 32008G18KT 3/4SM -SN BR VV011 00/M01 A2929 RMK AO2 SLP927 P0001 60010 T00001006 10011 20000 53014

EXPIRED METARs :
  • 230538Z AUTO 33012G21KT 290V360 1SM -SN BR VV013 01/M01 A2928 RMK AO2 P0001 T00061006
  • 230454Z AUTO 34009G17KT 1 3/4SM -SN BR FEW014 OVC022 01/00 A2926 RMK AO2 SLP916 P0002 T00060000 400110000
  • 230421Z AUTO 35010G20KT 2 1/2SM -SN BR FEW014 BKN035 OVC055 01/00 A2925 RMK AO2 P0001 T00060000
  • 230412Z AUTO 34010G20KT 1 3/4SM -SN BR FEW014 BKN031 OVC055 01/00 A2925 RMK AO2 P0000 T00060000
  • 230354Z AUTO 35012G21KT 2 1/2SM -SN BR FEW012 OVC031 01/00 A2925 RMK AO2 SLP913 P0002 T00060000
  • 230322Z AUTO 35011G17KT 2SM -SN BR BKN024 OVC035 01/00 A2925 RMK AO2 P0001 T00060000

TAF N/A
KZBW FIR / North America



MET'MAP, your aeronautical weather chart ! - Copyright ORBIFLY December 2007 - Disclaimer

ORBIFLY MET'MAP TEAM :

Programming & Development : Alexandra Zaïnal
Concept & Development : Baudouin d'Aumeries
Co-Development & Prog : Marc-Olivier Méhu
Technical & hardware support : Manuel Goepfert

Contact : metmap@orbifly.com




SOURCES & CREDITS :

   NOAA